sensor_id;sensor_type;location;lat;lon;timestamp;temperature;humidity
1453;DHT22;720;47.738;7.998;2022-12-29T00:01:40;7.80;98.40
1453;DHT22;720;47.738;7.998;2022-12-29T00:04:06;7.90;97.60
1453;DHT22;720;47.738;7.998;2022-12-29T00:06:32;7.90;97.80
1453;DHT22;720;47.738;7.998;2022-12-29T00:08:58;8.00;97.70
1453;DHT22;720;47.738;7.998;2022-12-29T00:11:26;8.10;97.60
1453;DHT22;720;47.738;7.998;2022-12-29T00:13:53;8.20;97.00
1453;DHT22;720;47.738;7.998;2022-12-29T00:16:39;8.20;97.50
1453;DHT22;720;47.738;7.998;2022-12-29T00:19:05;8.30;97.50
1453;DHT22;720;47.738;7.998;2022-12-29T00:21:32;8.40;97.00
1453;DHT22;720;47.738;7.998;2022-12-29T00:24:19;8.50;96.70
1453;DHT22;720;47.738;7.998;2022-12-29T00:29:48;8.60;96.30
1453;DHT22;720;47.738;7.998;2022-12-29T00:32:32;8.70;95.90
1453;DHT22;720;47.738;7.998;2022-12-29T00:37:51;8.70;96.20
1453;DHT22;720;47.738;7.998;2022-12-29T00:40:36;8.70;96.00
1453;DHT22;720;47.738;7.998;2022-12-29T00:43:20;8.70;95.40
1453;DHT22;720;47.738;7.998;2022-12-29T00:46:04;8.70;95.30
1453;DHT22;720;47.738;7.998;2022-12-29T00:48:30;8.80;95.10
1453;DHT22;720;47.738;7.998;2022-12-29T00:51:14;8.90;95.10
1453;DHT22;720;47.738;7.998;2022-12-29T00:53:40;8.90;94.90
1453;DHT22;720;47.738;7.998;2022-12-29T00:56:06;8.90;95.20
1453;DHT22;720;47.738;7.998;2022-12-29T00:58:31;8.80;94.50
1453;DHT22;720;47.738;7.998;2022-12-29T01:01:06;8.90;94.80
1453;DHT22;720;47.738;7.998;2022-12-29T01:03:33;8.80;94.80
1453;DHT22;720;47.738;7.998;2022-12-29T01:06:01;8.80;94.30
1453;DHT22;720;47.738;7.998;2022-12-29T01:08:28;8.80;93.70
1453;DHT22;720;47.738;7.998;2022-12-29T01:13:28;8.80;94.10
1453;DHT22;720;47.738;7.998;2022-12-29T01:15:55;8.90;93.90
1453;DHT22;720;47.738;7.998;2022-12-29T01:18:21;8.80;93.80
1453;DHT22;720;47.738;7.998;2022-12-29T01:20:46;8.70;93.60
1453;DHT22;720;47.738;7.998;2022-12-29T01:23:12;8.70;93.60
1453;DHT22;720;47.738;7.998;2022-12-29T01:25:38;8.80;93.70
1453;DHT22;720;47.738;7.998;2022-12-29T01:28:04;8.70;93.60
1453;DHT22;720;47.738;7.998;2022-12-29T01:30:29;8.80;93.20
1453;DHT22;720;47.738;7.998;2022-12-29T01:32:55;8.90;94.10
1453;DHT22;720;47.738;7.998;2022-12-29T01:35:21;8.90;93.40
1453;DHT22;720;47.738;7.998;2022-12-29T01:37:46;8.90;93.70
1453;DHT22;720;47.738;7.998;2022-12-29T01:40:12;8.80;93.60
1453;DHT22;720;47.738;7.998;2022-12-29T01:42:38;8.80;93.40
1453;DHT22;720;47.738;7.998;2022-12-29T01:45:14;8.80;93.40
1453;DHT22;720;47.738;7.998;2022-12-29T01:47:44;8.80;93.40
1453;DHT22;720;47.738;7.998;2022-12-29T01:50:29;8.80;93.70
1453;DHT22;720;47.738;7.998;2022-12-29T01:55:34;8.70;94.50
1453;DHT22;720;47.738;7.998;2022-12-29T01:58:04;8.60;93.30
1453;DHT22;720;47.738;7.998;2022-12-29T02:00:30;8.80;93.50
1453;DHT22;720;47.738;7.998;2022-12-29T02:02:56;8.90;93.60
1453;DHT22;720;47.738;7.998;2022-12-29T02:05:28;8.90;93.20
1453;DHT22;720;47.738;7.998;2022-12-29T02:07:56;8.90;93.40
1453;DHT22;720;47.738;7.998;2022-12-29T02:10:25;9.00;93.90
1453;DHT22;720;47.738;7.998;2022-12-29T02:12:51;9.00;93.20
1453;DHT22;720;47.738;7.998;2022-12-29T02:15:32;9.00;93.20
1453;DHT22;720;47.738;7.998;2022-12-29T02:21:06;8.90;93.80
1453;DHT22;720;47.738;7.998;2022-12-29T02:32:11;8.90;92.80
1453;DHT22;720;47.738;7.998;2022-12-29T02:42:51;8.90;93.40
1453;DHT22;720;47.738;7.998;2022-12-29T02:45:41;8.90;93.20
1453;DHT22;720;47.738;7.998;2022-12-29T02:48:20;8.80;92.50
1453;DHT22;720;47.738;7.998;2022-12-29T02:51:00;8.80;93.50
1453;DHT22;720;47.738;7.998;2022-12-29T02:53:27;8.80;94.00
1453;DHT22;720;47.738;7.998;2022-12-29T02:56:12;8.80;93.70
1453;DHT22;720;47.738;7.998;2022-12-29T02:58:38;8.80;93.50
1453;DHT22;720;47.738;7.998;2022-12-29T03:06:44;9.00;93.10
1453;DHT22;720;47.738;7.998;2022-12-29T03:11:59;9.10;93.00
1453;DHT22;720;47.738;7.998;2022-12-29T03:15:03;9.20;92.70
1453;DHT22;720;47.738;7.998;2022-12-29T03:17:59;9.30;93.60
1453;DHT22;720;47.738;7.998;2022-12-29T03:20:32;9.30;92.90
1453;DHT22;720;47.738;7.998;2022-12-29T03:23:03;9.30;92.90
1453;DHT22;720;47.738;7.998;2022-12-29T03:25:39;9.40;92.60
1453;DHT22;720;47.738;7.998;2022-12-29T03:28:12;9.40;92.50
1453;DHT22;720;47.738;7.998;2022-12-29T03:30:39;9.40;92.80
1453;DHT22;720;47.738;7.998;2022-12-29T03:33:12;9.50;92.70
1453;DHT22;720;47.738;7.998;2022-12-29T03:35:41;9.50;92.90
1453;DHT22;720;47.738;7.998;2022-12-29T03:38:16;9.50;93.10
1453;DHT22;720;47.738;7.998;2022-12-29T03:40:47;9.60;92.90
1453;DHT22;720;47.738;7.998;2022-12-29T03:43:14;9.50;93.30
1453;DHT22;720;47.738;7.998;2022-12-29T03:45:40;9.60;92.80
1453;DHT22;720;47.738;7.998;2022-12-29T03:48:06;9.70;92.80
1453;DHT22;720;47.738;7.998;2022-12-29T03:50:32;9.70;92.80
1453;DHT22;720;47.738;7.998;2022-12-29T03:52:57;9.70;93.40
1453;DHT22;720;47.738;7.998;2022-12-29T03:55:23;9.60;93.20
1453;DHT22;720;47.738;7.998;2022-12-29T03:57:49;9.60;93.30
1453;DHT22;720;47.738;7.998;2022-12-29T04:00:14;9.60;93.50
1453;DHT22;720;47.738;7.998;2022-12-29T04:02:41;9.60;93.50
1453;DHT22;720;47.738;7.998;2022-12-29T04:05:07;9.60;93.70
1453;DHT22;720;47.738;7.998;2022-12-29T04:07:33;9.40;94.10
1453;DHT22;720;47.738;7.998;2022-12-29T04:09:58;9.40;94.10
1453;DHT22;720;47.738;7.998;2022-12-29T04:12:24;9.40;93.90
1453;DHT22;720;47.738;7.998;2022-12-29T04:14:50;9.40;94.70
1453;DHT22;720;47.738;7.998;2022-12-29T04:17:15;9.40;94.50
1453;DHT22;720;47.738;7.998;2022-12-29T04:19:41;9.40;94.40
1453;DHT22;720;47.738;7.998;2022-12-29T04:22:07;9.40;94.70
1453;DHT22;720;47.738;7.998;2022-12-29T04:24:32;9.50;95.10
1453;DHT22;720;47.738;7.998;2022-12-29T04:26:58;9.50;95.00
1453;DHT22;720;47.738;7.998;2022-12-29T04:29:23;9.50;94.50
1453;DHT22;720;47.738;7.998;2022-12-29T04:31:49;9.50;95.00
1453;DHT22;720;47.738;7.998;2022-12-29T04:34:15;9.50;94.30
1453;DHT22;720;47.738;7.998;2022-12-29T04:36:41;9.50;93.50
1453;DHT22;720;47.738;7.998;2022-12-29T04:39:06;9.60;93.60
1453;DHT22;720;47.738;7.998;2022-12-29T04:41:32;9.60;94.40
1453;DHT22;720;47.738;7.998;2022-12-29T04:43:58;9.60;94.60
1453;DHT22;720;47.738;7.998;2022-12-29T04:46:23;9.60;95.10
1453;DHT22;720;47.738;7.998;2022-12-29T04:48:49;9.50;95.10
1453;DHT22;720;47.738;7.998;2022-12-29T04:51:15;9.50;94.90
1453;DHT22;720;47.738;7.998;2022-12-29T04:53:40;9.40;95.10
1453;DHT22;720;47.738;7.998;2022-12-29T04:56:06;9.30;94.40
1453;DHT22;720;47.738;7.998;2022-12-29T04:58:32;9.30;94.40
1453;DHT22;720;47.738;7.998;2022-12-29T05:00:57;9.40;94.50
1453;DHT22;720;47.738;7.998;2022-12-29T05:03:23;9.50;94.90
1453;DHT22;720;47.738;7.998;2022-12-29T05:05:49;9.60;94.60
1453;DHT22;720;47.738;7.998;2022-12-29T05:08:14;9.60;94.70
1453;DHT22;720;47.738;7.998;2022-12-29T05:10:43;9.60;94.50
1453;DHT22;720;47.738;7.998;2022-12-29T05:13:09;9.70;94.50
1453;DHT22;720;47.738;7.998;2022-12-29T05:15:34;9.70;94.70
1453;DHT22;720;47.738;7.998;2022-12-29T05:18:00;9.70;94.50
1453;DHT22;720;47.738;7.998;2022-12-29T05:20:25;9.60;94.10
1453;DHT22;720;47.738;7.998;2022-12-29T05:22:51;9.50;93.70
1453;DHT22;720;47.738;7.998;2022-12-29T05:25:17;9.60;94.20
1453;DHT22;720;47.738;7.998;2022-12-29T05:27:42;9.60;94.50
1453;DHT22;720;47.738;7.998;2022-12-29T05:30:08;9.60;93.90
1453;DHT22;720;47.738;7.998;2022-12-29T05:32:34;9.60;93.60
1453;DHT22;720;47.738;7.998;2022-12-29T05:35:00;9.70;93.60
1453;DHT22;720;47.738;7.998;2022-12-29T05:37:25;9.80;93.90
1453;DHT22;720;47.738;7.998;2022-12-29T05:39:51;9.80;93.90
1453;DHT22;720;47.738;7.998;2022-12-29T05:42:17;9.80;94.10
1453;DHT22;720;47.738;7.998;2022-12-29T05:44:42;9.70;93.40
1453;DHT22;720;47.738;7.998;2022-12-29T05:47:08;9.60;93.10
1453;DHT22;720;47.738;7.998;2022-12-29T05:49:33;9.60;93.50
1453;DHT22;720;47.738;7.998;2022-12-29T05:51:59;9.60;93.00
1453;DHT22;720;47.738;7.998;2022-12-29T05:54:25;9.60;93.20
1453;DHT22;720;47.738;7.998;2022-12-29T05:56:50;9.50;93.40
1453;DHT22;720;47.738;7.998;2022-12-29T05:59:16;9.60;93.50
1453;DHT22;720;47.738;7.998;2022-12-29T06:01:41;9.60;93.30
1453;DHT22;720;47.738;7.998;2022-12-29T06:04:07;9.50;93.20
1453;DHT22;720;47.738;7.998;2022-12-29T06:06:33;9.50;93.40
1453;DHT22;720;47.738;7.998;2022-12-29T06:08:58;9.50;93.30
1453;DHT22;720;47.738;7.998;2022-12-29T06:11:24;9.50;93.20
1453;DHT22;720;47.738;7.998;2022-12-29T06:13:50;9.50;93.20
1453;DHT22;720;47.738;7.998;2022-12-29T06:16:15;9.60;93.30
1453;DHT22;720;47.738;7.998;2022-12-29T06:18:41;9.60;93.10
1453;DHT22;720;47.738;7.998;2022-12-29T06:21:07;9.60;93.20
1453;DHT22;720;47.738;7.998;2022-12-29T06:23:33;9.40;93.00
1453;DHT22;720;47.738;7.998;2022-12-29T06:25:59;9.50;93.20
1453;DHT22;720;47.738;7.998;2022-12-29T06:28:24;9.40;93.10
1453;DHT22;720;47.738;7.998;2022-12-29T06:30:50;9.40;93.20
1453;DHT22;720;47.738;7.998;2022-12-29T06:33:15;9.50;93.30
1453;DHT22;720;47.738;7.998;2022-12-29T06:35:44;9.50;93.30
1453;DHT22;720;47.738;7.998;2022-12-29T06:38:11;9.50;93.20
1453;DHT22;720;47.738;7.998;2022-12-29T06:40:37;9.50;93.30
1453;DHT22;720;47.738;7.998;2022-12-29T06:43:02;9.50;93.30
1453;DHT22;720;47.738;7.998;2022-12-29T06:45:28;9.50;93.40
1453;DHT22;720;47.738;7.998;2022-12-29T06:47:53;9.50;93.40
1453;DHT22;720;47.738;7.998;2022-12-29T06:50:19;9.50;93.50
1453;DHT22;720;47.738;7.998;2022-12-29T06:52:45;9.50;93.50
1453;DHT22;720;47.738;7.998;2022-12-29T06:55:10;9.50;93.60
1453;DHT22;720;47.738;7.998;2022-12-29T06:57:36;9.50;93.70
1453;DHT22;720;47.738;7.998;2022-12-29T07:00:03;9.50;93.50
1453;DHT22;720;47.738;7.998;2022-12-29T07:02:30;9.50;93.60
1453;DHT22;720;47.738;7.998;2022-12-29T07:04:55;9.50;93.50
1453;DHT22;720;47.738;7.998;2022-12-29T07:07:21;9.50;93.60
1453;DHT22;720;47.738;7.998;2022-12-29T07:09:47;9.50;93.80
1453;DHT22;720;47.738;7.998;2022-12-29T07:12:12;9.60;93.60
1453;DHT22;720;47.738;7.998;2022-12-29T07:14:38;9.70;93.60
1453;DHT22;720;47.738;7.998;2022-12-29T07:17:04;9.70;93.80
1453;DHT22;720;47.738;7.998;2022-12-29T07:19:32;9.60;93.60
1453;DHT22;720;47.738;7.998;2022-12-29T07:21:58;9.70;93.70
1453;DHT22;720;47.738;7.998;2022-12-29T07:24:23;9.70;93.70
1453;DHT22;720;47.738;7.998;2022-12-29T07:26:51;9.80;93.90
1453;DHT22;720;47.738;7.998;2022-12-29T07:29:17;9.70;93.80
1453;DHT22;720;47.738;7.998;2022-12-29T07:31:43;9.70;93.80
1453;DHT22;720;47.738;7.998;2022-12-29T07:34:08;9.70;93.80
1453;DHT22;720;47.738;7.998;2022-12-29T07:36:34;9.70;93.90
1453;DHT22;720;47.738;7.998;2022-12-29T07:39:00;9.90;94.10
1453;DHT22;720;47.738;7.998;2022-12-29T07:41:26;9.90;93.90
1453;DHT22;720;47.738;7.998;2022-12-29T07:43:52;9.90;93.50
1453;DHT22;720;47.738;7.998;2022-12-29T07:46:17;9.90;94.10
1453;DHT22;720;47.738;7.998;2022-12-29T07:48:43;9.90;94.20
1453;DHT22;720;47.738;7.998;2022-12-29T07:51:08;9.70;93.80
1453;DHT22;720;47.738;7.998;2022-12-29T07:53:35;9.80;93.90
1453;DHT22;720;47.738;7.998;2022-12-29T07:56:00;9.80;93.70
1453;DHT22;720;47.738;7.998;2022-12-29T07:58:26;9.60;94.00
1453;DHT22;720;47.738;7.998;2022-12-29T08:00:55;9.60;93.90
1453;DHT22;720;47.738;7.998;2022-12-29T08:03:22;9.70;94.00
1453;DHT22;720;47.738;7.998;2022-12-29T08:05:48;9.80;94.30
1453;DHT22;720;47.738;7.998;2022-12-29T08:08:14;9.70;94.50
1453;DHT22;720;47.738;7.998;2022-12-29T08:10:40;9.60;94.60
1453;DHT22;720;47.738;7.998;2022-12-29T08:13:05;9.70;95.00
1453;DHT22;720;47.738;7.998;2022-12-29T08:15:31;9.80;95.40
1453;DHT22;720;47.738;7.998;2022-12-29T08:17:57;9.70;96.50
1453;DHT22;720;47.738;7.998;2022-12-29T08:20:22;9.70;96.70
1453;DHT22;720;47.738;7.998;2022-12-29T08:22:48;9.70;96.90
1453;DHT22;720;47.738;7.998;2022-12-29T08:25:13;9.70;97.50
1453;DHT22;720;47.738;7.998;2022-12-29T08:27:39;9.60;98.90
1453;DHT22;720;47.738;7.998;2022-12-29T08:30:05;9.60;99.60
1453;DHT22;720;47.738;7.998;2022-12-29T08:32:31;9.50;99.80
1453;DHT22;720;47.738;7.998;2022-12-29T08:34:57;9.50;99.80
1453;DHT22;720;47.738;7.998;2022-12-29T08:37:23;9.50;99.90
1453;DHT22;720;47.738;7.998;2022-12-29T08:39:48;9.50;99.90
1453;DHT22;720;47.738;7.998;2022-12-29T08:42:14;9.40;99.90
1453;DHT22;720;47.738;7.998;2022-12-29T08:44:39;9.50;99.90
1453;DHT22;720;47.738;7.998;2022-12-29T08:47:05;9.40;99.90
1453;DHT22;720;47.738;7.998;2022-12-29T08:49:31;9.30;99.90
1453;DHT22;720;47.738;7.998;2022-12-29T08:51:58;9.30;99.90
1453;DHT22;720;47.738;7.998;2022-12-29T08:54:24;9.20;99.90
1453;DHT22;720;47.738;7.998;2022-12-29T08:56:50;9.10;99.90
1453;DHT22;720;47.738;7.998;2022-12-29T08:59:15;9.10;99.90
1453;DHT22;720;47.738;7.998;2022-12-29T09:01:41;9.20;99.90
1453;DHT22;720;47.738;7.998;2022-12-29T09:04:07;9.10;99.90
1453;DHT22;720;47.738;7.998;2022-12-29T09:06:33;9.20;99.90
1453;DHT22;720;47.738;7.998;2022-12-29T09:08:59;9.20;99.90
1453;DHT22;720;47.738;7.998;2022-12-29T09:11:25;9.20;99.90
1453;DHT22;720;47.738;7.998;2022-12-29T09:13:52;9.20;99.90
1453;DHT22;720;47.738;7.998;2022-12-29T09:16:18;9.20;99.90
1453;DHT22;720;47.738;7.998;2022-12-29T09:18:44;9.30;99.90
1453;DHT22;720;47.738;7.998;2022-12-29T09:21:11;9.30;99.90
1453;DHT22;720;47.738;7.998;2022-12-29T09:23:37;9.30;99.90
1453;DHT22;720;47.738;7.998;2022-12-29T09:26:03;9.40;99.90
1453;DHT22;720;47.738;7.998;2022-12-29T09:28:30;9.50;99.90
1453;DHT22;720;47.738;7.998;2022-12-29T09:30:57;9.50;99.90
1453;DHT22;720;47.738;7.998;2022-12-29T09:33:22;9.60;99.90
1453;DHT22;720;47.738;7.998;2022-12-29T09:35:56;9.60;99.90
1453;DHT22;720;47.738;7.998;2022-12-29T09:38:23;9.60;99.90
1453;DHT22;720;47.738;7.998;2022-12-29T09:40:54;9.60;99.90
1453;DHT22;720;47.738;7.998;2022-12-29T09:48:33;9.70;99.90
1453;DHT22;720;47.738;7.998;2022-12-29T09:51:05;9.80;99.90
1453;DHT22;720;47.738;7.998;2022-12-29T09:53:49;9.80;99.90
1453;DHT22;720;47.738;7.998;2022-12-29T09:56:17;9.70;99.90
1453;DHT22;720;47.738;7.998;2022-12-29T09:58:49;9.70;99.90
1453;DHT22;720;47.738;7.998;2022-12-29T10:04:03;9.80;99.90
1453;DHT22;720;47.738;7.998;2022-12-29T10:06:57;9.80;99.90
1453;DHT22;720;47.738;7.998;2022-12-29T10:18:15;10.00;99.90
1453;DHT22;720;47.738;7.998;2022-12-29T10:20:58;10.10;99.90
1453;DHT22;720;47.738;7.998;2022-12-29T10:23:41;10.00;99.90
1453;DHT22;720;47.738;7.998;2022-12-29T10:26:16;10.00;99.90
1453;DHT22;720;47.738;7.998;2022-12-29T10:29:05;10.00;99.90
1453;DHT22;720;47.738;7.998;2022-12-29T10:31:48;10.10;99.90
1453;DHT22;720;47.738;7.998;2022-12-29T10:34:22;10.10;99.60
1453;DHT22;720;47.738;7.998;2022-12-29T10:36:52;10.00;99.70
1453;DHT22;720;47.738;7.998;2022-12-29T10:39:43;10.00;99.70
1453;DHT22;720;47.738;7.998;2022-12-29T10:42:34;9.90;99.70
1453;DHT22;720;47.738;7.998;2022-12-29T10:45:02;10.00;99.00
1453;DHT22;720;47.738;7.998;2022-12-29T10:47:33;10.10;99.10
1453;DHT22;720;47.738;7.998;2022-12-29T10:50:02;10.30;99.70
1453;DHT22;720;47.738;7.998;2022-12-29T10:52:28;10.40;99.90
1453;DHT22;720;47.738;7.998;2022-12-29T10:55:18;10.40;99.60
1453;DHT22;720;47.738;7.998;2022-12-29T10:57:45;10.40;98.80
1453;DHT22;720;47.738;7.998;2022-12-29T11:00:18;10.40;99.00
1453;DHT22;720;47.738;7.998;2022-12-29T11:08:14;10.50;97.90
1453;DHT22;720;47.738;7.998;2022-12-29T11:10:44;10.50;97.70
1453;DHT22;720;47.738;7.998;2022-12-29T11:13:16;10.50;98.30
1453;DHT22;720;47.738;7.998;2022-12-29T11:15:43;10.70;98.10
1453;DHT22;720;47.738;7.998;2022-12-29T11:18:27;10.80;97.30
1453;DHT22;720;47.738;7.998;2022-12-29T11:20:59;10.80;97.50
1453;DHT22;720;47.738;7.998;2022-12-29T11:23:35;10.80;98.30
1453;DHT22;720;47.738;7.998;2022-12-29T11:28:39;10.70;98.00
1453;DHT22;720;47.738;7.998;2022-12-29T11:31:07;10.70;98.20
1453;DHT22;720;47.738;7.998;2022-12-29T11:33:35;10.70;98.80
1453;DHT22;720;47.738;7.998;2022-12-29T11:36:06;10.60;98.70
1453;DHT22;720;47.738;7.998;2022-12-29T11:38:59;10.60;98.60
1453;DHT22;720;47.738;7.998;2022-12-29T11:41:27;10.60;98.80
1453;DHT22;720;47.738;7.998;2022-12-29T11:43:56;10.50;99.10
1453;DHT22;720;47.738;7.998;2022-12-29T11:46:29;10.50;99.90
1453;DHT22;720;47.738;7.998;2022-12-29T11:48:57;10.50;99.90
1453;DHT22;720;47.738;7.998;2022-12-29T11:54:09;10.50;99.90
1453;DHT22;720;47.738;7.998;2022-12-29T11:56:43;10.70;99.90
1453;DHT22;720;47.738;7.998;2022-12-29T11:59:53;10.70;99.90
1453;DHT22;720;47.738;7.998;2022-12-29T12:05:23;10.70;99.90
1453;DHT22;720;47.738;7.998;2022-12-29T12:07:52;10.80;99.90
1453;DHT22;720;47.738;7.998;2022-12-29T12:10:23;10.80;99.90
1453;DHT22;720;47.738;7.998;2022-12-29T12:13:04;10.80;99.90
1453;DHT22;720;47.738;7.998;2022-12-29T12:15:43;10.90;99.90
1453;DHT22;720;47.738;7.998;2022-12-29T12:19:00;10.90;99.90
1453;DHT22;720;47.738;7.998;2022-12-29T12:21:38;10.90;99.90
1453;DHT22;720;47.738;7.998;2022-12-29T12:26:53;11.20;99.90
1453;DHT22;720;47.738;7.998;2022-12-29T12:29:28;11.30;99.90
1453;DHT22;720;47.738;7.998;2022-12-29T12:32:04;11.40;99.90
1453;DHT22;720;47.738;7.998;2022-12-29T12:34:45;11.50;99.90
1453;DHT22;720;47.738;7.998;2022-12-29T12:42:50;11.50;99.90
1453;DHT22;720;47.738;7.998;2022-12-29T12:57:07;10.90;99.90
1453;DHT22;720;47.738;7.998;2022-12-29T13:00:28;10.90;99.90
1453;DHT22;720;47.738;7.998;2022-12-29T13:05:42;10.80;99.90
1453;DHT22;720;47.738;7.998;2022-12-29T13:14:04;10.70;99.90
1453;DHT22;720;47.738;7.998;2022-12-29T13:16:44;10.70;99.90
1453;DHT22;720;47.738;7.998;2022-12-29T13:19:17;10.60;99.90
1453;DHT22;720;47.738;7.998;2022-12-29T13:22:09;10.50;99.90
1453;DHT22;720;47.738;7.998;2022-12-29T13:25:17;10.50;99.90
1453;DHT22;720;47.738;7.998;2022-12-29T13:31:04;10.60;99.90
1453;DHT22;720;47.738;7.998;2022-12-29T13:36:43;10.70;99.90
1453;DHT22;720;47.738;7.998;2022-12-29T13:41:55;10.70;99.90
1453;DHT22;720;47.738;7.998;2022-12-29T13:44:46;10.60;99.90
1453;DHT22;720;47.738;7.998;2022-12-29T13:47:38;10.50;99.90
1453;DHT22;720;47.738;7.998;2022-12-29T13:50:13;10.50;99.90
1453;DHT22;720;47.738;7.998;2022-12-29T13:52:48;10.40;99.90
1453;DHT22;720;47.738;7.998;2022-12-29T14:01:30;10.30;99.90
1453;DHT22;720;47.738;7.998;2022-12-29T14:03:59;10.30;99.90
1453;DHT22;720;47.738;7.998;2022-12-29T14:06:35;10.30;99.90
1453;DHT22;720;47.738;7.998;2022-12-29T14:11:51;10.30;99.90
1453;DHT22;720;47.738;7.998;2022-12-29T14:14:27;10.30;99.90
1453;DHT22;720;47.738;7.998;2022-12-29T14:16:54;10.30;99.90
1453;DHT22;720;47.738;7.998;2022-12-29T14:19:41;10.30;99.90
1453;DHT22;720;47.738;7.998;2022-12-29T14:22:07;10.30;99.90
1453;DHT22;720;47.738;7.998;2022-12-29T14:34:59;10.20;99.90
1453;DHT22;720;47.738;7.998;2022-12-29T14:40:22;10.20;99.90
1453;DHT22;720;47.738;7.998;2022-12-29T14:42:54;10.10;99.90
1453;DHT22;720;47.738;7.998;2022-12-29T14:47:48;10.20;99.90
1453;DHT22;720;47.738;7.998;2022-12-29T14:53:04;10.10;99.90
1453;DHT22;720;47.738;7.998;2022-12-29T14:55:47;10.10;99.90
1453;DHT22;720;47.738;7.998;2022-12-29T14:58:20;10.10;99.90
1453;DHT22;720;47.738;7.998;2022-12-29T15:00:47;10.00;99.90
1453;DHT22;720;47.738;7.998;2022-12-29T15:03:29;10.00;99.90
1453;DHT22;720;47.738;7.998;2022-12-29T15:06:08;10.00;99.90
1453;DHT22;720;47.738;7.998;2022-12-29T15:11:18;10.00;99.90
1453;DHT22;720;47.738;7.998;2022-12-29T15:13:45;10.00;99.90
1453;DHT22;720;47.738;7.998;2022-12-29T15:18:48;10.00;99.90
1453;DHT22;720;47.738;7.998;2022-12-29T15:21:15;10.00;99.90
1453;DHT22;720;47.738;7.998;2022-12-29T15:23:43;10.00;99.90
1453;DHT22;720;47.738;7.998;2022-12-29T15:26:10;9.90;99.90
1453;DHT22;720;47.738;7.998;2022-12-29T15:28:42;9.80;99.90
1453;DHT22;720;47.738;7.998;2022-12-29T15:33:40;9.80;99.90
1453;DHT22;720;47.738;7.998;2022-12-29T15:36:12;9.90;99.90
1453;DHT22;720;47.738;7.998;2022-12-29T15:38:38;9.80;99.90
1453;DHT22;720;47.738;7.998;2022-12-29T15:46:27;9.70;99.90
1453;DHT22;720;47.738;7.998;2022-12-29T15:48:55;9.70;99.90
1453;DHT22;720;47.738;7.998;2022-12-29T15:51:29;9.70;99.90
1453;DHT22;720;47.738;7.998;2022-12-29T15:53:56;9.70;99.90
1453;DHT22;720;47.738;7.998;2022-12-29T15:56:22;9.60;99.90
1453;DHT22;720;47.738;7.998;2022-12-29T15:58:50;9.60;99.90
1453;DHT22;720;47.738;7.998;2022-12-29T16:01:41;9.70;99.90
1453;DHT22;720;47.738;7.998;2022-12-29T16:04:09;9.50;99.90
1453;DHT22;720;47.738;7.998;2022-12-29T16:06:44;9.50;99.90
1453;DHT22;720;47.738;7.998;2022-12-29T16:09:18;9.60;99.90
1453;DHT22;720;47.738;7.998;2022-12-29T16:11:47;9.50;99.90
1453;DHT22;720;47.738;7.998;2022-12-29T16:14:19;9.60;99.90
1453;DHT22;720;47.738;7.998;2022-12-29T16:16:47;9.60;99.90
1453;DHT22;720;47.738;7.998;2022-12-29T16:19:37;9.60;99.90
1453;DHT22;720;47.738;7.998;2022-12-29T16:22:11;9.50;99.90
1453;DHT22;720;47.738;7.998;2022-12-29T16:24:39;9.60;99.90
1453;DHT22;720;47.738;7.998;2022-12-29T16:27:09;9.60;99.90
1453;DHT22;720;47.738;7.998;2022-12-29T16:29:35;9.50;99.90
1453;DHT22;720;47.738;7.998;2022-12-29T16:32:02;9.70;99.90
1453;DHT22;720;47.738;7.998;2022-12-29T16:39:47;9.50;99.90
1453;DHT22;720;47.738;7.998;2022-12-29T16:42:33;9.50;99.90
1453;DHT22;720;47.738;7.998;2022-12-29T16:47:48;9.50;99.90
1453;DHT22;720;47.738;7.998;2022-12-29T16:50:19;9.50;99.90
1453;DHT22;720;47.738;7.998;2022-12-29T16:52:49;9.60;99.90
1453;DHT22;720;47.738;7.998;2022-12-29T16:55:17;9.60;99.90
1453;DHT22;720;47.738;7.998;2022-12-29T16:57:44;9.60;99.90
1453;DHT22;720;47.738;7.998;2022-12-29T17:00:36;9.50;99.90
1453;DHT22;720;47.738;7.998;2022-12-29T17:03:03;9.60;99.90
1453;DHT22;720;47.738;7.998;2022-12-29T17:05:28;9.60;99.90
1453;DHT22;720;47.738;7.998;2022-12-29T17:07:54;9.60;99.90
1453;DHT22;720;47.738;7.998;2022-12-29T17:10:25;9.60;99.90
1453;DHT22;720;47.738;7.998;2022-12-29T17:13:11;9.60;99.90
1453;DHT22;720;47.738;7.998;2022-12-29T17:15:37;9.50;99.90
1453;DHT22;720;47.738;7.998;2022-12-29T17:18:03;9.30;99.90
1453;DHT22;720;47.738;7.998;2022-12-29T17:20:30;9.20;99.90
1453;DHT22;720;47.738;7.998;2022-12-29T17:22:57;9.20;99.90
1453;DHT22;720;47.738;7.998;2022-12-29T17:25:31;9.30;99.90
1453;DHT22;720;47.738;7.998;2022-12-29T17:28:03;9.20;99.90
1453;DHT22;720;47.738;7.998;2022-12-29T17:30:32;9.10;99.90
1453;DHT22;720;47.738;7.998;2022-12-29T17:33:02;9.00;99.90
1453;DHT22;720;47.738;7.998;2022-12-29T17:35:28;9.10;99.90
1453;DHT22;720;47.738;7.998;2022-12-29T17:37:54;9.10;99.90
1453;DHT22;720;47.738;7.998;2022-12-29T17:40:23;9.30;99.90
1453;DHT22;720;47.738;7.998;2022-12-29T17:42:56;9.30;99.90
1453;DHT22;720;47.738;7.998;2022-12-29T17:45:24;9.30;99.90
1453;DHT22;720;47.738;7.998;2022-12-29T17:47:50;9.30;99.90
1453;DHT22;720;47.738;7.998;2022-12-29T17:50:21;9.40;99.90
1453;DHT22;720;47.738;7.998;2022-12-29T17:52:55;9.30;99.90
1453;DHT22;720;47.738;7.998;2022-12-29T17:55:22;9.30;99.90
1453;DHT22;720;47.738;7.998;2022-12-29T17:57:49;9.40;99.90
1453;DHT22;720;47.738;7.998;2022-12-29T18:02:41;9.40;99.90
1453;DHT22;720;47.738;7.998;2022-12-29T18:05:33;9.40;99.90
1453;DHT22;720;47.738;7.998;2022-12-29T18:07:59;9.30;99.90
1453;DHT22;720;47.738;7.998;2022-12-29T18:10:28;9.30;99.90
1453;DHT22;720;47.738;7.998;2022-12-29T18:12:58;9.40;99.90
1453;DHT22;720;47.738;7.998;2022-12-29T18:15:30;9.50;99.90
1453;DHT22;720;47.738;7.998;2022-12-29T18:20:27;9.50;99.90
1453;DHT22;720;47.738;7.998;2022-12-29T18:22:53;9.50;99.90
1453;DHT22;720;47.738;7.998;2022-12-29T18:25:42;9.50;99.90
1453;DHT22;720;47.738;7.998;2022-12-29T18:28:09;9.50;99.90
1453;DHT22;720;47.738;7.998;2022-12-29T18:30:35;9.50;99.90
1453;DHT22;720;47.738;7.998;2022-12-29T18:33:01;9.50;99.90
1453;DHT22;720;47.738;7.998;2022-12-29T18:35:48;9.50;99.90
1453;DHT22;720;47.738;7.998;2022-12-29T18:38:16;9.50;99.90
1453;DHT22;720;47.738;7.998;2022-12-29T18:40:41;9.40;99.90
1453;DHT22;720;47.738;7.998;2022-12-29T18:43:11;9.30;99.90
1453;DHT22;720;47.738;7.998;2022-12-29T18:45:37;9.30;99.90
1453;DHT22;720;47.738;7.998;2022-12-29T18:48:03;9.30;99.90
1453;DHT22;720;47.738;7.998;2022-12-29T18:50:29;9.10;99.90
1453;DHT22;720;47.738;7.998;2022-12-29T18:52:55;9.10;99.90
1453;DHT22;720;47.738;7.998;2022-12-29T18:55:23;9.10;99.90
1453;DHT22;720;47.738;7.998;2022-12-29T18:57:49;9.10;99.90
1453;DHT22;720;47.738;7.998;2022-12-29T19:00:17;9.10;99.90
1453;DHT22;720;47.738;7.998;2022-12-29T19:02:44;9.10;99.90
1453;DHT22;720;47.738;7.998;2022-12-29T19:05:36;9.00;99.90
1453;DHT22;720;47.738;7.998;2022-12-29T19:08:03;8.90;99.90
1453;DHT22;720;47.738;7.998;2022-12-29T19:10:29;8.90;99.90
1453;DHT22;720;47.738;7.998;2022-12-29T19:12:54;9.00;99.90
1453;DHT22;720;47.738;7.998;2022-12-29T19:15:26;8.90;99.90
1453;DHT22;720;47.738;7.998;2022-12-29T19:17:53;8.90;99.90
1453;DHT22;720;47.738;7.998;2022-12-29T19:20:38;9.00;99.90
1453;DHT22;720;47.738;7.998;2022-12-29T19:23:07;8.90;99.90
1453;DHT22;720;47.738;7.998;2022-12-29T19:25:33;9.00;99.90
1453;DHT22;720;47.738;7.998;2022-12-29T19:27:58;9.00;99.90
1453;DHT22;720;47.738;7.998;2022-12-29T19:30:25;9.00;99.90
1453;DHT22;720;47.738;7.998;2022-12-29T19:32:53;9.00;99.90